sensor_id;sensor_type;location;lat;lon;timestamp;temperature;humidity
80279;DHT22;70683;52.492;13.416;2023-10-13T00:00:33;15.10;91.20
80279;DHT22;70683;52.492;13.416;2023-10-13T00:03:03;15.10;91.40
80279;DHT22;70683;52.492;13.416;2023-10-13T00:05:32;15.10;91.10
80279;DHT22;70683;52.492;13.416;2023-10-13T00:08:00;15.10;91.00
80279;DHT22;70683;52.492;13.416;2023-10-13T00:10:30;15.10;91.00
80279;DHT22;70683;52.492;13.416;2023-10-13T00:12:57;15.10;91.00
80279;DHT22;70683;52.492;13.416;2023-10-13T00:15:43;15.10;91.10
80279;DHT22;70683;52.492;13.416;2023-10-13T00:18:14;15.10;91.10
80279;DHT22;70683;52.492;13.416;2023-10-13T00:20:42;15.10;91.10
80279;DHT22;70683;52.492;13.416;2023-10-13T00:23:16;15.10;91.20
80279;DHT22;70683;52.492;13.416;2023-10-13T00:25:47;15.10;90.60
80279;DHT22;70683;52.492;13.416;2023-10-13T00:28:17;15.20;90.70
80279;DHT22;70683;52.492;13.416;2023-10-13T00:30:45;15.10;90.60
80279;DHT22;70683;52.492;13.416;2023-10-13T00:33:14;15.10;90.70
80279;DHT22;70683;52.492;13.416;2023-10-13T00:35:42;15.20;90.70
80279;DHT22;70683;52.492;13.416;2023-10-13T00:38:10;15.10;90.70
80279;DHT22;70683;52.492;13.416;2023-10-13T00:40:40;15.10;90.80
80279;DHT22;70683;52.492;13.416;2023-10-13T00:43:08;15.00;90.90
80279;DHT22;70683;52.492;13.416;2023-10-13T00:45:40;15.00;90.90
80279;DHT22;70683;52.492;13.416;2023-10-13T00:48:07;15.00;90.80
80279;DHT22;70683;52.492;13.416;2023-10-13T00:50:36;15.10;90.90
80279;DHT22;70683;52.492;13.416;2023-10-13T00:53:04;15.00;91.10
80279;DHT22;70683;52.492;13.416;2023-10-13T00:55:31;15.10;91.20
80279;DHT22;70683;52.492;13.416;2023-10-13T00:58:00;15.00;91.30
80279;DHT22;70683;52.492;13.416;2023-10-13T01:00:30;15.00;91.30
80279;DHT22;70683;52.492;13.416;2023-10-13T01:02:57;15.10;90.90
80279;DHT22;70683;52.492;13.416;2023-10-13T01:05:26;15.20;90.80
80279;DHT22;70683;52.492;13.416;2023-10-13T01:07:52;15.20;90.80
80279;DHT22;70683;52.492;13.416;2023-10-13T01:10:21;15.20;90.80
80279;DHT22;70683;52.492;13.416;2023-10-13T01:12:50;15.20;90.90
80279;DHT22;70683;52.492;13.416;2023-10-13T01:15:18;15.20;91.00
80279;DHT22;70683;52.492;13.416;2023-10-13T01:17:47;15.20;91.30
80279;DHT22;70683;52.492;13.416;2023-10-13T01:20:15;15.20;90.80
80279;DHT22;70683;52.492;13.416;2023-10-13T01:22:52;15.30;90.60
80279;DHT22;70683;52.492;13.416;2023-10-13T01:25:24;15.20;90.70
80279;DHT22;70683;52.492;13.416;2023-10-13T01:27:53;15.20;90.70
80279;DHT22;70683;52.492;13.416;2023-10-13T01:30:20;15.30;90.60
80279;DHT22;70683;52.492;13.416;2023-10-13T01:32:50;15.20;90.70
80279;DHT22;70683;52.492;13.416;2023-10-13T01:35:17;15.10;90.90
80279;DHT22;70683;52.492;13.416;2023-10-13T01:37:47;15.10;91.00
80279;DHT22;70683;52.492;13.416;2023-10-13T01:40:14;15.00;91.10
80279;DHT22;70683;52.492;13.416;2023-10-13T01:42:42;15.00;91.10
80279;DHT22;70683;52.492;13.416;2023-10-13T01:45:11;15.10;91.00
80279;DHT22;70683;52.492;13.416;2023-10-13T01:47:40;15.10;91.00
80279;DHT22;70683;52.492;13.416;2023-10-13T01:50:07;15.00;91.30
80279;DHT22;70683;52.492;13.416;2023-10-13T01:52:45;15.00;91.30
80279;DHT22;70683;52.492;13.416;2023-10-13T01:55:13;15.10;91.30
80279;DHT22;70683;52.492;13.416;2023-10-13T01:57:40;15.00;91.30
80279;DHT22;70683;52.492;13.416;2023-10-13T02:00:10;15.10;91.20
80279;DHT22;70683;52.492;13.416;2023-10-13T02:02:39;15.10;91.40
80279;DHT22;70683;52.492;13.416;2023-10-13T02:05:08;15.00;91.50
80279;DHT22;70683;52.492;13.416;2023-10-13T02:07:34;15.00;91.60
80279;DHT22;70683;52.492;13.416;2023-10-13T02:10:03;15.10;91.60
80279;DHT22;70683;52.492;13.416;2023-10-13T02:12:32;15.10;91.30
80279;DHT22;70683;52.492;13.416;2023-10-13T02:15:04;15.10;91.30
80279;DHT22;70683;52.492;13.416;2023-10-13T02:17:31;15.10;91.30
80279;DHT22;70683;52.492;13.416;2023-10-13T02:20:03;15.00;91.50
80279;DHT22;70683;52.492;13.416;2023-10-13T02:22:34;15.00;91.60
80279;DHT22;70683;52.492;13.416;2023-10-13T02:25:02;15.00;91.70
80279;DHT22;70683;52.492;13.416;2023-10-13T02:27:34;15.10;91.50
80279;DHT22;70683;52.492;13.416;2023-10-13T02:30:07;15.10;91.50
80279;DHT22;70683;52.492;13.416;2023-10-13T02:32:37;15.10;91.60
80279;DHT22;70683;52.492;13.416;2023-10-13T02:35:06;15.00;91.80
80279;DHT22;70683;52.492;13.416;2023-10-13T02:37:34;15.00;91.80
80279;DHT22;70683;52.492;13.416;2023-10-13T02:40:02;15.00;91.90
80279;DHT22;70683;52.492;13.416;2023-10-13T02:42:28;15.00;92.00
80279;DHT22;70683;52.492;13.416;2023-10-13T02:44:55;15.10;91.90
80279;DHT22;70683;52.492;13.416;2023-10-13T02:47:23;15.00;91.90
80279;DHT22;70683;52.492;13.416;2023-10-13T02:49:52;15.10;91.80
80279;DHT22;70683;52.492;13.416;2023-10-13T02:52:18;15.00;91.80
80279;DHT22;70683;52.492;13.416;2023-10-13T02:54:46;15.10;91.90
80279;DHT22;70683;52.492;13.416;2023-10-13T02:57:13;15.10;91.90
80279;DHT22;70683;52.492;13.416;2023-10-13T02:59:45;15.10;92.00
80279;DHT22;70683;52.492;13.416;2023-10-13T03:02:14;15.10;92.10
80279;DHT22;70683;52.492;13.416;2023-10-13T03:04:47;15.10;92.10
80279;DHT22;70683;52.492;13.416;2023-10-13T03:07:14;15.10;92.10
80279;DHT22;70683;52.492;13.416;2023-10-13T03:09:44;15.10;91.90
80279;DHT22;70683;52.492;13.416;2023-10-13T03:12:13;15.20;91.90
80279;DHT22;70683;52.492;13.416;2023-10-13T03:14:40;15.10;92.10
80279;DHT22;70683;52.492;13.416;2023-10-13T03:17:07;15.10;92.10
80279;DHT22;70683;52.492;13.416;2023-10-13T03:19:38;15.10;92.00
80279;DHT22;70683;52.492;13.416;2023-10-13T03:22:07;15.20;92.00
80279;DHT22;70683;52.492;13.416;2023-10-13T03:24:37;15.20;92.00
80279;DHT22;70683;52.492;13.416;2023-10-13T03:27:05;15.20;92.00
80279;DHT22;70683;52.492;13.416;2023-10-13T03:29:37;15.20;92.10
80279;DHT22;70683;52.492;13.416;2023-10-13T03:32:06;15.20;92.00
80279;DHT22;70683;52.492;13.416;2023-10-13T03:34:35;15.30;91.90
80279;DHT22;70683;52.492;13.416;2023-10-13T03:37:04;15.30;91.90
80279;DHT22;70683;52.492;13.416;2023-10-13T03:39:33;15.30;91.90
80279;DHT22;70683;52.492;13.416;2023-10-13T03:42:00;15.30;92.20
80279;DHT22;70683;52.492;13.416;2023-10-13T03:44:26;15.30;92.10
80279;DHT22;70683;52.492;13.416;2023-10-13T03:46:55;15.30;92.10
80279;DHT22;70683;52.492;13.416;2023-10-13T03:49:21;15.30;92.00
80279;DHT22;70683;52.492;13.416;2023-10-13T03:51:50;15.30;92.00
80279;DHT22;70683;52.492;13.416;2023-10-13T03:54:19;15.30;92.10
80279;DHT22;70683;52.492;13.416;2023-10-13T03:56:45;15.40;92.10
80279;DHT22;70683;52.492;13.416;2023-10-13T03:59:12;15.40;92.00
80279;DHT22;70683;52.492;13.416;2023-10-13T04:01:45;15.40;92.00
80279;DHT22;70683;52.492;13.416;2023-10-13T04:04:14;15.40;92.00
80279;DHT22;70683;52.492;13.416;2023-10-13T04:06:43;15.40;92.10
80279;DHT22;70683;52.492;13.416;2023-10-13T04:09:24;15.50;92.00
80279;DHT22;70683;52.492;13.416;2023-10-13T04:12:10;15.40;92.10
80279;DHT22;70683;52.492;13.416;2023-10-13T04:14:49;15.40;92.10
80279;DHT22;70683;52.492;13.416;2023-10-13T04:17:36;15.40;92.00
80279;DHT22;70683;52.492;13.416;2023-10-13T04:20:08;15.40;92.00
80279;DHT22;70683;52.492;13.416;2023-10-13T04:22:43;15.40;92.10
80279;DHT22;70683;52.492;13.416;2023-10-13T04:25:29;15.50;92.20
80279;DHT22;70683;52.492;13.416;2023-10-13T04:28:05;15.50;92.30
80279;DHT22;70683;52.492;13.416;2023-10-13T04:30:51;15.50;92.20
80279;DHT22;70683;52.492;13.416;2023-10-13T04:33:21;15.50;92.20
80279;DHT22;70683;52.492;13.416;2023-10-13T04:36:07;15.50;92.20
80279;DHT22;70683;52.492;13.416;2023-10-13T04:38:43;15.50;92.30
80279;DHT22;70683;52.492;13.416;2023-10-13T04:41:16;15.60;92.40
80279;DHT22;70683;52.492;13.416;2023-10-13T04:43:44;15.60;92.00
80279;DHT22;70683;52.492;13.416;2023-10-13T04:46:17;15.60;92.20
80279;DHT22;70683;52.492;13.416;2023-10-13T04:48:49;15.60;92.20
80279;DHT22;70683;52.492;13.416;2023-10-13T04:51:16;15.60;92.20
80279;DHT22;70683;52.492;13.416;2023-10-13T04:54:01;15.60;92.20
80279;DHT22;70683;52.492;13.416;2023-10-13T04:56:30;15.60;92.20
80279;DHT22;70683;52.492;13.416;2023-10-13T04:59:02;15.50;92.30
80279;DHT22;70683;52.492;13.416;2023-10-13T05:01:34;15.50;92.40
80279;DHT22;70683;52.492;13.416;2023-10-13T05:04:07;15.50;92.50
80279;DHT22;70683;52.492;13.416;2023-10-13T05:06:53;15.60;92.30
80279;DHT22;70683;52.492;13.416;2023-10-13T05:09:25;15.70;92.30
80279;DHT22;70683;52.492;13.416;2023-10-13T05:11:58;15.70;92.20
80279;DHT22;70683;52.492;13.416;2023-10-13T05:14:31;15.70;92.20
80279;DHT22;70683;52.492;13.416;2023-10-13T05:17:03;15.70;92.00
80279;DHT22;70683;52.492;13.416;2023-10-13T05:19:36;15.70;92.10
80279;DHT22;70683;52.492;13.416;2023-10-13T05:22:08;15.70;92.10
80279;DHT22;70683;52.492;13.416;2023-10-13T05:24:41;15.70;92.20
80279;DHT22;70683;52.492;13.416;2023-10-13T05:27:13;15.80;92.10
80279;DHT22;70683;52.492;13.416;2023-10-13T05:29:46;15.80;92.10
80279;DHT22;70683;52.492;13.416;2023-10-13T05:32:19;15.80;92.40
80279;DHT22;70683;52.492;13.416;2023-10-13T05:34:51;15.90;92.00
80279;DHT22;70683;52.492;13.416;2023-10-13T05:37:24;15.90;92.00
80279;DHT22;70683;52.492;13.416;2023-10-13T05:39:56;15.90;92.10
80279;DHT22;70683;52.492;13.416;2023-10-13T05:42:28;15.90;92.20
80279;DHT22;70683;52.492;13.416;2023-10-13T05:45:01;15.90;92.20
80279;DHT22;70683;52.492;13.416;2023-10-13T05:47:33;15.90;92.20
80279;DHT22;70683;52.492;13.416;2023-10-13T05:50:06;15.80;92.30
80279;DHT22;70683;52.492;13.416;2023-10-13T05:52:37;15.90;92.40
80279;DHT22;70683;52.492;13.416;2023-10-13T05:55:27;15.90;92.40
80279;DHT22;70683;52.492;13.416;2023-10-13T05:57:59;15.90;92.30
80279;DHT22;70683;52.492;13.416;2023-10-13T06:00:37;15.90;92.30
80279;DHT22;70683;52.492;13.416;2023-10-13T06:03:08;15.90;92.30
80279;DHT22;70683;52.492;13.416;2023-10-13T06:05:40;15.90;92.40
80279;DHT22;70683;52.492;13.416;2023-10-13T06:08:13;16.00;92.30
80279;DHT22;70683;52.492;13.416;2023-10-13T06:10:46;16.00;92.30
80279;DHT22;70683;52.492;13.416;2023-10-13T06:13:19;16.10;92.10
80279;DHT22;70683;52.492;13.416;2023-10-13T06:15:51;16.10;92.20
80279;DHT22;70683;52.492;13.416;2023-10-13T06:18:24;16.10;92.20
80279;DHT22;70683;52.492;13.416;2023-10-13T06:20:56;16.20;92.20
80279;DHT22;70683;52.492;13.416;2023-10-13T06:23:28;16.30;92.10
80279;DHT22;70683;52.492;13.416;2023-10-13T06:26:01;16.30;92.10
80279;DHT22;70683;52.492;13.416;2023-10-13T06:28:33;16.30;92.10
80279;DHT22;70683;52.492;13.416;2023-10-13T06:31:06;16.40;92.10
80279;DHT22;70683;52.492;13.416;2023-10-13T06:33:33;16.50;91.90
80279;DHT22;70683;52.492;13.416;2023-10-13T06:36:02;16.50;91.80
80279;DHT22;70683;52.492;13.416;2023-10-13T06:38:29;16.50;91.80
80279;DHT22;70683;52.492;13.416;2023-10-13T06:40:59;16.60;91.80
80279;DHT22;70683;52.492;13.416;2023-10-13T06:43:25;16.60;91.70
80279;DHT22;70683;52.492;13.416;2023-10-13T06:45:54;16.60;91.60
80279;DHT22;70683;52.492;13.416;2023-10-13T06:48:25;16.70;91.50
80279;DHT22;70683;52.492;13.416;2023-10-13T06:50:53;16.70;91.60
80279;DHT22;70683;52.492;13.416;2023-10-13T06:53:22;16.70;91.60
80279;DHT22;70683;52.492;13.416;2023-10-13T06:55:50;16.80;91.50
80279;DHT22;70683;52.492;13.416;2023-10-13T06:58:18;16.90;91.30
80279;DHT22;70683;52.492;13.416;2023-10-13T07:00:47;16.90;91.20
80279;DHT22;70683;52.492;13.416;2023-10-13T07:03:19;17.00;91.60
80279;DHT22;70683;52.492;13.416;2023-10-13T07:05:47;17.10;91.30
80279;DHT22;70683;52.492;13.416;2023-10-13T07:08:15;17.20;91.10
80279;DHT22;70683;52.492;13.416;2023-10-13T07:10:54;17.40;90.80
80279;DHT22;70683;52.492;13.416;2023-10-13T07:13:27;17.50;90.70
80279;DHT22;70683;52.492;13.416;2023-10-13T07:15:54;17.70;90.40
80279;DHT22;70683;52.492;13.416;2023-10-13T07:18:23;17.80;90.20
80279;DHT22;70683;52.492;13.416;2023-10-13T07:20:49;17.90;90.00
80279;DHT22;70683;52.492;13.416;2023-10-13T07:23:16;18.00;89.70
80279;DHT22;70683;52.492;13.416;2023-10-13T07:25:53;18.20;89.30
80279;DHT22;70683;52.492;13.416;2023-10-13T07:28:21;18.30;88.70
80279;DHT22;70683;52.492;13.416;2023-10-13T07:30:48;18.40;87.80
80279;DHT22;70683;52.492;13.416;2023-10-13T07:33:17;18.40;88.20
80279;DHT22;70683;52.492;13.416;2023-10-13T07:35:46;18.40;87.80
80279;DHT22;70683;52.492;13.416;2023-10-13T07:38:15;18.50;87.80
80279;DHT22;70683;52.492;13.416;2023-10-13T07:40:43;18.60;87.30
80279;DHT22;70683;52.492;13.416;2023-10-13T07:43:14;18.60;86.90
80279;DHT22;70683;52.492;13.416;2023-10-13T07:45:42;18.60;87.00
80279;DHT22;70683;52.492;13.416;2023-10-13T07:48:11;18.70;87.30
80279;DHT22;70683;52.492;13.416;2023-10-13T07:50:40;18.70;87.40
80279;DHT22;70683;52.492;13.416;2023-10-13T07:53:07;18.80;86.70
80279;DHT22;70683;52.492;13.416;2023-10-13T07:55:40;18.80;86.60
80279;DHT22;70683;52.492;13.416;2023-10-13T07:58:07;18.90;86.00
80279;DHT22;70683;52.492;13.416;2023-10-13T08:00:33;18.90;85.90
80279;DHT22;70683;52.492;13.416;2023-10-13T08:03:07;19.00;85.90
80279;DHT22;70683;52.492;13.416;2023-10-13T08:05:37;19.00;86.40
80279;DHT22;70683;52.492;13.416;2023-10-13T08:08:08;19.00;85.40
80279;DHT22;70683;52.492;13.416;2023-10-13T08:10:39;19.10;85.30
80279;DHT22;70683;52.492;13.416;2023-10-13T08:13:07;19.00;85.00
80279;DHT22;70683;52.492;13.416;2023-10-13T08:15:36;19.10;85.20
80279;DHT22;70683;52.492;13.416;2023-10-13T08:18:06;19.10;85.20
80279;DHT22;70683;52.492;13.416;2023-10-13T08:20:39;19.10;85.00
80279;DHT22;70683;52.492;13.416;2023-10-13T08:23:06;19.10;85.10
80279;DHT22;70683;52.492;13.416;2023-10-13T08:25:38;19.10;85.20
80279;DHT22;70683;52.492;13.416;2023-10-13T08:28:10;19.20;85.10
80279;DHT22;70683;52.492;13.416;2023-10-13T08:30:43;19.30;84.50
80279;DHT22;70683;52.492;13.416;2023-10-13T08:33:12;19.50;84.40
80279;DHT22;70683;52.492;13.416;2023-10-13T08:35:50;19.60;84.10
80279;DHT22;70683;52.492;13.416;2023-10-13T08:38:21;19.70;83.60
80279;DHT22;70683;52.492;13.416;2023-10-13T08:40:50;19.80;83.20
80279;DHT22;70683;52.492;13.416;2023-10-13T08:43:24;19.80;83.20
80279;DHT22;70683;52.492;13.416;2023-10-13T08:45:55;19.70;83.30
80279;DHT22;70683;52.492;13.416;2023-10-13T08:48:26;19.80;83.10
80279;DHT22;70683;52.492;13.416;2023-10-13T08:50:54;19.70;83.20
80279;DHT22;70683;52.492;13.416;2023-10-13T08:53:23;19.80;83.60
80279;DHT22;70683;52.492;13.416;2023-10-13T08:56:00;19.80;82.70
80279;DHT22;70683;52.492;13.416;2023-10-13T08:58:35;19.80;82.70
80279;DHT22;70683;52.492;13.416;2023-10-13T09:01:07;19.80;82.60
80279;DHT22;70683;52.492;13.416;2023-10-13T09:03:40;19.80;82.90
80279;DHT22;70683;52.492;13.416;2023-10-13T09:06:12;19.70;82.80
80279;DHT22;70683;52.492;13.416;2023-10-13T09:08:44;19.80;82.70
80279;DHT22;70683;52.492;13.416;2023-10-13T09:11:13;19.80;82.80
80279;DHT22;70683;52.492;13.416;2023-10-13T09:13:40;19.80;83.20
80279;DHT22;70683;52.492;13.416;2023-10-13T09:16:11;19.80;82.90
80279;DHT22;70683;52.492;13.416;2023-10-13T09:18:41;19.90;82.60
80279;DHT22;70683;52.492;13.416;2023-10-13T09:21:10;19.90;82.30
80279;DHT22;70683;52.492;13.416;2023-10-13T09:23:56;20.00;81.30
80279;DHT22;70683;52.492;13.416;2023-10-13T09:26:24;20.00;81.80
80279;DHT22;70683;52.492;13.416;2023-10-13T09:28:51;20.00;82.20
80279;DHT22;70683;52.492;13.416;2023-10-13T09:31:22;20.00;82.50
80279;DHT22;70683;52.492;13.416;2023-10-13T09:33:51;20.00;81.90
80279;DHT22;70683;52.492;13.416;2023-10-13T09:36:18;20.00;82.50
80279;DHT22;70683;52.492;13.416;2023-10-13T09:38:46;19.80;83.40
80279;DHT22;70683;52.492;13.416;2023-10-13T09:41:15;19.80;83.40
80279;DHT22;70683;52.492;13.416;2023-10-13T09:43:45;19.80;83.90
80279;DHT22;70683;52.492;13.416;2023-10-13T09:46:15;19.70;84.30
80279;DHT22;70683;52.492;13.416;2023-10-13T09:48:44;19.70;84.30
80279;DHT22;70683;52.492;13.416;2023-10-13T09:51:14;19.60;84.30
80279;DHT22;70683;52.492;13.416;2023-10-13T09:53:47;19.50;85.00
80279;DHT22;70683;52.492;13.416;2023-10-13T09:56:21;19.50;85.30
80279;DHT22;70683;52.492;13.416;2023-10-13T09:59:00;19.40;85.60
80279;DHT22;70683;52.492;13.416;2023-10-13T10:01:30;19.40;85.90
80279;DHT22;70683;52.492;13.416;2023-10-13T10:04:13;19.50;86.00
80279;DHT22;70683;52.492;13.416;2023-10-13T10:06:59;19.40;86.40
80279;DHT22;70683;52.492;13.416;2023-10-13T10:09:29;19.50;86.00
80279;DHT22;70683;52.492;13.416;2023-10-13T10:12:38;19.50;86.20
80279;DHT22;70683;52.492;13.416;2023-10-13T10:15:19;19.50;86.50
80279;DHT22;70683;52.492;13.416;2023-10-13T10:17:44;19.60;86.00
80279;DHT22;70683;52.492;13.416;2023-10-13T10:20:12;19.60;85.90
80279;DHT22;70683;52.492;13.416;2023-10-13T10:22:43;19.60;86.20
80279;DHT22;70683;52.492;13.416;2023-10-13T10:25:13;19.60;85.90
80279;DHT22;70683;52.492;13.416;2023-10-13T10:27:53;19.60;86.20
80279;DHT22;70683;52.492;13.416;2023-10-13T10:30:23;19.60;86.00
80279;DHT22;70683;52.492;13.416;2023-10-13T10:32:53;19.60;86.70
80279;DHT22;70683;52.492;13.416;2023-10-13T10:35:22;19.60;86.70
80279;DHT22;70683;52.492;13.416;2023-10-13T10:37:48;19.60;86.90
80279;DHT22;70683;52.492;13.416;2023-10-13T10:40:15;19.50;86.80
80279;DHT22;70683;52.492;13.416;2023-10-13T10:42:51;19.60;86.70
80279;DHT22;70683;52.492;13.416;2023-10-13T10:45:18;19.60;87.10
80279;DHT22;70683;52.492;13.416;2023-10-13T10:47:48;19.60;86.90
80279;DHT22;70683;52.492;13.416;2023-10-13T10:50:24;19.60;86.90
80279;DHT22;70683;52.492;13.416;2023-10-13T10:52:46;19.60;87.50
80279;DHT22;70683;52.492;13.416;2023-10-13T10:55:13;19.60;88.70
80279;DHT22;70683;52.492;13.416;2023-10-13T10:57:42;19.50;88.40
80279;DHT22;70683;52.492;13.416;2023-10-13T11:00:18;19.50;88.60
80279;DHT22;70683;52.492;13.416;2023-10-13T11:02:55;19.50;89.20
80279;DHT22;70683;52.492;13.416;2023-10-13T11:05:22;19.50;89.10
80279;DHT22;70683;52.492;13.416;2023-10-13T11:07:51;19.50;90.00
80279;DHT22;70683;52.492;13.416;2023-10-13T11:10:18;19.50;90.00
80279;DHT22;70683;52.492;13.416;2023-10-13T11:12:54;19.50;90.00
80279;DHT22;70683;52.492;13.416;2023-10-13T11:15:21;19.50;89.90
80279;DHT22;70683;52.492;13.416;2023-10-13T11:17:49;19.60;89.90
80279;DHT22;70683;52.492;13.416;2023-10-13T11:20:20;19.60;90.10
80279;DHT22;70683;52.492;13.416;2023-10-13T11:22:49;19.60;90.40
80279;DHT22;70683;52.492;13.416;2023-10-13T11:25:22;19.60;89.70
80279;DHT22;70683;52.492;13.416;2023-10-13T11:27:49;19.70;89.70
80279;DHT22;70683;52.492;13.416;2023-10-13T11:30:24;19.70;89.30
80279;DHT22;70683;52.492;13.416;2023-10-13T11:33:06;19.80;89.20
80279;DHT22;70683;52.492;13.416;2023-10-13T11:35:34;19.90;89.00
80279;DHT22;70683;52.492;13.416;2023-10-13T11:38:06;19.90;89.00
80279;DHT22;70683;52.492;13.416;2023-10-13T11:40:34;19.80;88.90
80279;DHT22;70683;52.492;13.416;2023-10-13T11:43:10;19.90;88.90
80279;DHT22;70683;52.492;13.416;2023-10-13T11:45:41;19.80;89.00
80279;DHT22;70683;52.492;13.416;2023-10-13T11:48:11;19.90;88.90
80279;DHT22;70683;52.492;13.416;2023-10-13T11:50:40;19.90;88.60
80279;DHT22;70683;52.492;13.416;2023-10-13T11:53:08;19.90;88.10
80279;DHT22;70683;52.492;13.416;2023-10-13T11:55:34;20.00;88.70
80279;DHT22;70683;52.492;13.416;2023-10-13T11:58:01;20.00;88.10
80279;DHT22;70683;52.492;13.416;2023-10-13T12:00:30;20.00;88.10
80279;DHT22;70683;52.492;13.416;2023-10-13T12:03:03;20.10;87.80
80279;DHT22;70683;52.492;13.416;2023-10-13T12:05:35;20.20;87.10
80279;DHT22;70683;52.492;13.416;2023-10-13T12:08:04;20.30;87.10
80279;DHT22;70683;52.492;13.416;2023-10-13T12:10:33;20.40;87.00
80279;DHT22;70683;52.492;13.416;2023-10-13T12:13:01;20.50;86.60
80279;DHT22;70683;52.492;13.416;2023-10-13T12:15:31;20.60;85.60
80279;DHT22;70683;52.492;13.416;2023-10-13T12:18:00;20.70;85.30
80279;DHT22;70683;52.492;13.416;2023-10-13T12:20:29;20.70;85.20
80279;DHT22;70683;52.492;13.416;2023-10-13T12:22:59;20.80;84.80
80279;DHT22;70683;52.492;13.416;2023-10-13T12:25:28;20.70;84.90
80279;DHT22;70683;52.492;13.416;2023-10-13T12:28:07;20.80;84.50
80279;DHT22;70683;52.492;13.416;2023-10-13T12:30:41;20.80;84.50
80279;DHT22;70683;52.492;13.416;2023-10-13T12:33:13;20.90;84.90
80279;DHT22;70683;52.492;13.416;2023-10-13T12:35:42;21.00;84.40
80279;DHT22;70683;52.492;13.416;2023-10-13T12:38:13;21.10;83.70
80279;DHT22;70683;52.492;13.416;2023-10-13T12:40:56;21.20;82.90
80279;DHT22;70683;52.492;13.416;2023-10-13T12:43:28;21.20;83.10
80279;DHT22;70683;52.492;13.416;2023-10-13T12:46:01;21.20;82.90
80279;DHT22;70683;52.492;13.416;2023-10-13T12:48:34;21.30;82.80
80279;DHT22;70683;52.492;13.416;2023-10-13T12:51:07;21.40;82.20
80279;DHT22;70683;52.492;13.416;2023-10-13T12:53:36;21.40;82.00
80279;DHT22;70683;52.492;13.416;2023-10-13T12:56:03;21.50;81.70
80279;DHT22;70683;52.492;13.416;2023-10-13T12:58:30;21.60;81.80
80279;DHT22;70683;52.492;13.416;2023-10-13T13:01:00;21.60;81.20
80279;DHT22;70683;52.492;13.416;2023-10-13T13:03:29;21.70;81.40
80279;DHT22;70683;52.492;13.416;2023-10-13T13:05:56;21.70;81.20
80279;DHT22;70683;52.492;13.416;2023-10-13T13:08:22;21.80;80.80
80279;DHT22;70683;52.492;13.416;2023-10-13T13:10:50;21.80;80.50
80279;DHT22;70683;52.492;13.416;2023-10-13T13:13:18;21.90;80.40
80279;DHT22;70683;52.492;13.416;2023-10-13T13:15:46;22.00;79.60
80279;DHT22;70683;52.492;13.416;2023-10-13T13:18:13;22.10;79.40
80279;DHT22;70683;52.492;13.416;2023-10-13T13:20:40;22.10;79.00
80279;DHT22;70683;52.492;13.416;2023-10-13T13:23:08;22.30;78.60
80279;DHT22;70683;52.492;13.416;2023-10-13T13:25:37;22.30;78.60
80279;DHT22;70683;52.492;13.416;2023-10-13T13:28:06;22.40;78.10
80279;DHT22;70683;52.492;13.416;2023-10-13T13:30:32;22.40;77.80
80279;DHT22;70683;52.492;13.416;2023-10-13T13:33:01;22.50;77.20
80279;DHT22;70683;52.492;13.416;2023-10-13T13:35:30;22.60;77.50
80279;DHT22;70683;52.492;13.416;2023-10-13T13:38:02;22.50;76.70
80279;DHT22;70683;52.492;13.416;2023-10-13T13:40:32;22.60;76.70
80279;DHT22;70683;52.492;13.416;2023-10-13T13:43:01;22.70;75.70
80279;DHT22;70683;52.492;13.416;2023-10-13T13:45:27;22.70;75.90
80279;DHT22;70683;52.492;13.416;2023-10-13T13:47:54;22.80;76.50
80279;DHT22;70683;52.492;13.416;2023-10-13T13:50:23;22.90;75.80
80279;DHT22;70683;52.492;13.416;2023-10-13T13:52:52;22.80;74.80
80279;DHT22;70683;52.492;13.416;2023-10-13T13:55:21;22.80;74.80
80279;DHT22;70683;52.492;13.416;2023-10-13T13:57:48;22.80;74.70
80279;DHT22;70683;52.492;13.416;2023-10-13T14:00:17;22.80;75.00
80279;DHT22;70683;52.492;13.416;2023-10-13T14:02:46;22.90;75.00
80279;DHT22;70683;52.492;13.416;2023-10-13T14:05:15;22.90;74.50
80279;DHT22;70683;52.492;13.416;2023-10-13T14:07:43;23.00;74.30
80279;DHT22;70683;52.492;13.416;2023-10-13T14:10:13;23.00;74.20
80279;DHT22;70683;52.492;13.416;2023-10-13T14:12:41;23.10;74.40
80279;DHT22;70683;52.492;13.416;2023-10-13T14:15:10;23.10;74.20
80279;DHT22;70683;52.492;13.416;2023-10-13T14:17:42;23.10;73.70
80279;DHT22;70683;52.492;13.416;2023-10-13T14:20:09;23.20;73.10
80279;DHT22;70683;52.492;13.416;2023-10-13T14:22:37;23.10;72.70
80279;DHT22;70683;52.492;13.416;2023-10-13T14:25:05;23.00;72.50
80279;DHT22;70683;52.492;13.416;2023-10-13T14:27:33;23.00;73.30
80279;DHT22;70683;52.492;13.416;2023-10-13T14:30:02;23.00;73.10
80279;DHT22;70683;52.492;13.416;2023-10-13T14:32:29;22.90;73.30
80279;DHT22;70683;52.492;13.416;2023-10-13T14:34:56;23.00;72.70
80279;DHT22;70683;52.492;13.416;2023-10-13T14:37:23;22.90;72.60
80279;DHT22;70683;52.492;13.416;2023-10-13T14:39:53;22.90;71.80
80279;DHT22;70683;52.492;13.416;2023-10-13T14:42:27;22.90;71.80
80279;DHT22;70683;52.492;13.416;2023-10-13T14:44:54;22.90;71.50
80279;DHT22;70683;52.492;13.416;2023-10-13T14:47:24;22.90;71.70
80279;DHT22;70683;52.492;13.416;2023-10-13T14:49:54;22.90;71.80
80279;DHT22;70683;52.492;13.416;2023-10-13T14:52:23;22.90;71.30
80279;DHT22;70683;52.492;13.416;2023-10-13T14:54:49;22.90;71.30
80279;DHT22;70683;52.492;13.416;2023-10-13T14:57:19;22.90;71.30
80279;DHT22;70683;52.492;13.416;2023-10-13T14:59:47;22.90;71.30
80279;DHT22;70683;52.492;13.416;2023-10-13T15:02:14;22.80;71.60
80279;DHT22;70683;52.492;13.416;2023-10-13T15:04:41;22.80;71.10
80279;DHT22;70683;52.492;13.416;2023-10-13T15:07:08;22.80;71.40
80279;DHT22;70683;52.492;13.416;2023-10-13T15:09:35;22.80;71.80
80279;DHT22;70683;52.492;13.416;2023-10-13T15:12:02;22.80;71.50
80279;DHT22;70683;52.492;13.416;2023-10-13T15:14:30;22.80;71.80
80279;DHT22;70683;52.492;13.416;2023-10-13T15:16:59;22.80;71.20
80279;DHT22;70683;52.492;13.416;2023-10-13T15:19:26;22.80;71.60
80279;DHT22;70683;52.492;13.416;2023-10-13T15:21:55;22.80;71.40
80279;DHT22;70683;52.492;13.416;2023-10-13T15:24:21;22.70;71.50
80279;DHT22;70683;52.492;13.416;2023-10-13T15:26:50;22.70;71.50
80279;DHT22;70683;52.492;13.416;2023-10-13T15:29:20;22.70;72.00
80279;DHT22;70683;52.492;13.416;2023-10-13T15:31:59;22.60;72.00
80279;DHT22;70683;52.492;13.416;2023-10-13T15:34:43;22.60;71.50